Главная страница
METAR-TAF:

METAR-TAF

Аэропорты :

Farmingdale, Нью-Йорк, США

широта: 40-44-03N, долгота: 073-25-01W, высота над уровнем моря: 24 м

Текущие метеонаблюдения

Эта сводка был подготовлена 1 час и 3 минут назад, в 19:53 UTC
Ветер 13 Узел от юго-западный
Температура 20°C
Влажность 68%
Давление 1017 hPa
Видимость: 16.1 км
ясное небо

METAR: KFRG 231953Z 22013KT 10SM CLR 20/14 A3002 RMK AO2 LTG DSNT W AND NW SLP163 T02000144

Время: 16:56 (20:56 UTC)


TAF: отсутствует

Метеонаблюдения и прогнозы для более 4000 аэропортов (сводки METAR и TAF).

Имеющиеся станции представлены на карте желтыми и красными точками.

Чтобы увидеть название станции, наведите на нее мышь.

Затем щелкните, чтобы увидеть метеонаблюдения и метеопрогнозы.

Управление картой: чтобы увеличить масштаб, щелкните зеленые кнопки с черным крестиком; чтобы уменьшить масштаб, щелкните зеленую кнопку с тире; для просмотра соседних карт щелкайте зеленые стрелки.


METAR-TAF: